sensor_id;sensor_type;location;lat;lon;timestamp;P1;P2;P0
49708;PMS5003;35601;55.902;13.606;2024-02-28T00:01:25;29;22;
49708;PMS5003;35601;55.902;13.606;2024-02-28T00:03:50;27;23;
49708;PMS5003;35601;55.902;13.606;2024-02-28T00:06:15;23;19;
49708;PMS5003;35601;55.902;13.606;2024-02-28T00:08:41;30;25;
49708;PMS5003;35601;55.902;13.606;2024-02-28T00:11:07;26;25;
49708;PMS5003;35601;55.902;13.606;2024-02-28T00:13:32;31;25;
49708;PMS5003;35601;55.902;13.606;2024-02-28T00:15:57;26;18;
49708;PMS5003;35601;55.902;13.606;2024-02-28T00:18:23;23;23;
49708;PMS5003;35601;55.902;13.606;2024-02-28T00:20:48;35;27;
49708;PMS5003;35601;55.902;13.606;2024-02-28T00:23:13;27;25;
49708;PMS5003;35601;55.902;13.606;2024-02-28T00:25:39;38;27;
49708;PMS5003;35601;55.902;13.606;2024-02-28T00:28:04;27;23;
49708;PMS5003;35601;55.902;13.606;2024-02-28T00:30:30;25;21;
49708;PMS5003;35601;55.902;13.606;2024-02-28T00:32:55;27;21;
49708;PMS5003;35601;55.902;13.606;2024-02-28T00:35:21;33;27;
49708;PMS5003;35601;55.902;13.606;2024-02-28T00:37:46;22;18;
49708;PMS5003;35601;55.902;13.606;2024-02-28T00:40:12;27;24;
49708;PMS5003;35601;55.902;13.606;2024-02-28T00:42:37;29;27;
49708;PMS5003;35601;55.902;13.606;2024-02-28T00:45:03;25;18;
49708;PMS5003;35601;55.902;13.606;2024-02-28T00:47:28;31;26;
49708;PMS5003;35601;55.902;13.606;2024-02-28T00:49:53;31;19;
49708;PMS5003;35601;55.902;13.606;2024-02-28T00:52:19;33;21;
49708;PMS5003;35601;55.902;13.606;2024-02-28T00:54:45;32;26;
49708;PMS5003;35601;55.902;13.606;2024-02-28T00:57:10;31;26;
49708;PMS5003;35601;55.902;13.606;2024-02-28T00:59:36;29;27;
49708;PMS5003;35601;55.902;13.606;2024-02-28T01:02:01;24;19;
49708;PMS5003;35601;55.902;13.606;2024-02-28T01:04:26;26;23;
49708;PMS5003;35601;55.902;13.606;2024-02-28T01:06:52;26;19;
49708;PMS5003;35601;55.902;13.606;2024-02-28T01:09:17;26;21;
49708;PMS5003;35601;55.902;13.606;2024-02-28T01:11:43;25;21;
49708;PMS5003;35601;55.902;13.606;2024-02-28T01:14:08;31;24;
49708;PMS5003;35601;55.902;13.606;2024-02-28T01:16:33;24;19;
49708;PMS5003;35601;55.902;13.606;2024-02-28T01:18:59;28;23;
49708;PMS5003;35601;55.902;13.606;2024-02-28T01:21:24;33;27;
49708;PMS5003;35601;55.902;13.606;2024-02-28T01:23:49;40;28;
49708;PMS5003;35601;55.902;13.606;2024-02-28T01:26:15;29;23;
49708;PMS5003;35601;55.902;13.606;2024-02-28T01:28:40;27;23;
49708;PMS5003;35601;55.902;13.606;2024-02-28T01:31:06;35;24;
49708;PMS5003;35601;55.902;13.606;2024-02-28T01:33:32;24;21;
49708;PMS5003;35601;55.902;13.606;2024-02-28T01:35:57;29;25;
49708;PMS5003;35601;55.902;13.606;2024-02-28T01:38:22;30;23;
49708;PMS5003;35601;55.902;13.606;2024-02-28T01:40:48;28;21;
49708;PMS5003;35601;55.902;13.606;2024-02-28T01:43:13;29;26;
49708;PMS5003;35601;55.902;13.606;2024-02-28T01:45:39;29;21;
49708;PMS5003;35601;55.902;13.606;2024-02-28T01:48:04;21;19;
49708;PMS5003;35601;55.902;13.606;2024-02-28T01:50:29;22;17;
49708;PMS5003;35601;55.902;13.606;2024-02-28T01:52:54;33;25;
49708;PMS5003;35601;55.902;13.606;2024-02-28T01:55:19;36;27;
49708;PMS5003;35601;55.902;13.606;2024-02-28T01:57:45;27;22;
49708;PMS5003;35601;55.902;13.606;2024-02-28T02:00:10;36;30;
49708;PMS5003;35601;55.902;13.606;2024-02-28T02:02:36;31;25;
49708;PMS5003;35601;55.902;13.606;2024-02-28T02:05:01;28;22;
49708;PMS5003;35601;55.902;13.606;2024-02-28T02:07:27;36;27;
49708;PMS5003;35601;55.902;13.606;2024-02-28T02:09:52;26;22;
49708;PMS5003;35601;55.902;13.606;2024-02-28T02:12:17;28;24;
49708;PMS5003;35601;55.902;13.606;2024-02-28T02:14:46;35;27;
49708;PMS5003;35601;55.902;13.606;2024-02-28T02:17:08;20;19;
49708;PMS5003;35601;55.902;13.606;2024-02-28T02:19:33;35;26;
49708;PMS5003;35601;55.902;13.606;2024-02-28T02:21:58;34;25;
49708;PMS5003;35601;55.902;13.606;2024-02-28T02:24:24;29;26;
49708;PMS5003;35601;55.902;13.606;2024-02-28T02:26:54;28;18;
49708;PMS5003;35601;55.902;13.606;2024-02-28T02:29:14;31;26;
49708;PMS5003;35601;55.902;13.606;2024-02-28T02:31:40;28;24;
49708;PMS5003;35601;55.902;13.606;2024-02-28T02:34:05;25;20;
49708;PMS5003;35601;55.902;13.606;2024-02-28T02:36:31;26;20;
49708;PMS5003;35601;55.902;13.606;2024-02-28T02:38:56;29;21;
49708;PMS5003;35601;55.902;13.606;2024-02-28T02:41:21;25;21;
49708;PMS5003;35601;55.902;13.606;2024-02-28T02:43:47;22;17;
49708;PMS5003;35601;55.902;13.606;2024-02-28T02:46:12;22;22;
49708;PMS5003;35601;55.902;13.606;2024-02-28T02:48:38;29;23;
49708;PMS5003;35601;55.902;13.606;2024-02-28T02:51:03;27;19;
49708;PMS5003;35601;55.902;13.606;2024-02-28T02:53:29;30;24;
49708;PMS5003;35601;55.902;13.606;2024-02-28T02:55:54;24;19;
49708;PMS5003;35601;55.902;13.606;2024-02-28T02:58:20;32;22;
49708;PMS5003;35601;55.902;13.606;2024-02-28T03:00:45;23;20;
49708;PMS5003;35601;55.902;13.606;2024-02-28T03:03:11;30;21;
49708;PMS5003;35601;55.902;13.606;2024-02-28T03:05:36;24;20;
49708;PMS5003;35601;55.902;13.606;2024-02-28T03:08:02;28;24;
49708;PMS5003;35601;55.902;13.606;2024-02-28T03:10:27;18;16;
49708;PMS5003;35601;55.902;13.606;2024-02-28T03:12:52;21;16;
49708;PMS5003;35601;55.902;13.606;2024-02-28T03:15:17;21;18;
49708;PMS5003;35601;55.902;13.606;2024-02-28T03:17:42;21;19;
49708;PMS5003;35601;55.902;13.606;2024-02-28T03:20:08;18;17;
49708;PMS5003;35601;55.902;13.606;2024-02-28T03:22:32;29;21;
49708;PMS5003;35601;55.902;13.606;2024-02-28T03:24:58;28;20;
49708;PMS5003;35601;55.902;13.606;2024-02-28T03:27:24;34;28;
49708;PMS5003;35601;55.902;13.606;2024-02-28T03:29:49;24;19;
49708;PMS5003;35601;55.902;13.606;2024-02-28T03:32:14;25;18;
49708;PMS5003;35601;55.902;13.606;2024-02-28T03:34:40;24;20;
49708;PMS5003;35601;55.902;13.606;2024-02-28T03:37:05;26;23;
49708;PMS5003;35601;55.902;13.606;2024-02-28T03:39:31;25;18;
49708;PMS5003;35601;55.902;13.606;2024-02-28T03:41:57;26;21;
49708;PMS5003;35601;55.902;13.606;2024-02-28T03:44:22;29;27;
49708;PMS5003;35601;55.902;13.606;2024-02-28T03:46:48;28;18;
49708;PMS5003;35601;55.902;13.606;2024-02-28T03:49:13;22;19;
49708;PMS5003;35601;55.902;13.606;2024-02-28T03:51:39;32;26;
49708;PMS5003;35601;55.902;13.606;2024-02-28T03:54:04;24;19;
49708;PMS5003;35601;55.902;13.606;2024-02-28T03:56:29;32;25;
49708;PMS5003;35601;55.902;13.606;2024-02-28T03:58:55;27;25;
49708;PMS5003;35601;55.902;13.606;2024-02-28T04:01:21;27;24;
49708;PMS5003;35601;55.902;13.606;2024-02-28T04:03:47;32;24;
49708;PMS5003;35601;55.902;13.606;2024-02-28T04:06:12;34;24;
49708;PMS5003;35601;55.902;13.606;2024-02-28T04:08:37;34;24;
49708;PMS5003;35601;55.902;13.606;2024-02-28T04:11:06;34;27;
49708;PMS5003;35601;55.902;13.606;2024-02-28T04:13:27;31;25;
49708;PMS5003;35601;55.902;13.606;2024-02-28T04:15:53;35;26;
49708;PMS5003;35601;55.902;13.606;2024-02-28T04:18:19;31;25;
49708;PMS5003;35601;55.902;13.606;2024-02-28T04:20:44;27;25;
49708;PMS5003;35601;55.902;13.606;2024-02-28T04:23:09;34;29;
49708;PMS5003;35601;55.902;13.606;2024-02-28T04:25:35;29;25;
49708;PMS5003;35601;55.902;13.606;2024-02-28T04:28:00;25;24;
49708;PMS5003;35601;55.902;13.606;2024-02-28T04:30:25;32;25;
49708;PMS5003;35601;55.902;13.606;2024-02-28T04:32:51;37;25;
49708;PMS5003;35601;55.902;13.606;2024-02-28T04:35:17;40;26;
49708;PMS5003;35601;55.902;13.606;2024-02-28T04:37:42;31;24;
49708;PMS5003;35601;55.902;13.606;2024-02-28T04:40:07;29;21;
49708;PMS5003;35601;55.902;13.606;2024-02-28T04:42:32;24;19;
49708;PMS5003;35601;55.902;13.606;2024-02-28T04:44:57;28;25;
49708;PMS5003;35601;55.902;13.606;2024-02-28T04:47:22;29;25;
49708;PMS5003;35601;55.902;13.606;2024-02-28T04:49:47;32;23;
49708;PMS5003;35601;55.902;13.606;2024-02-28T04:52:13;26;23;
49708;PMS5003;35601;55.902;13.606;2024-02-28T04:54:39;27;21;
49708;PMS5003;35601;55.902;13.606;2024-02-28T04:57:04;26;23;
49708;PMS5003;35601;55.902;13.606;2024-02-28T04:59:30;29;22;
49708;PMS5003;35601;55.902;13.606;2024-02-28T05:01:55;34;28;
49708;PMS5003;35601;55.902;13.606;2024-02-28T05:04:20;34;23;
49708;PMS5003;35601;55.902;13.606;2024-02-28T05:06:46;32;24;
49708;PMS5003;35601;55.902;13.606;2024-02-28T05:09:11;31;23;
49708;PMS5003;35601;55.902;13.606;2024-02-28T05:11:36;30;27;
49708;PMS5003;35601;55.902;13.606;2024-02-28T05:14:02;33;30;
49708;PMS5003;35601;55.902;13.606;2024-02-28T05:16:28;33;27;
49708;PMS5003;35601;55.902;13.606;2024-02-28T05:18:53;32;25;
49708;PMS5003;35601;55.902;13.606;2024-02-28T05:21:19;26;24;
49708;PMS5003;35601;55.902;13.606;2024-02-28T05:23:44;25;21;
49708;PMS5003;35601;55.902;13.606;2024-02-28T05:26:09;30;24;
49708;PMS5003;35601;55.902;13.606;2024-02-28T05:28:35;32;21;
49708;PMS5003;35601;55.902;13.606;2024-02-28T05:31:01;24;18;
49708;PMS5003;35601;55.902;13.606;2024-02-28T05:33:25;27;23;
49708;PMS5003;35601;55.902;13.606;2024-02-28T05:35:51;34;27;
49708;PMS5003;35601;55.902;13.606;2024-02-28T05:38:16;39;28;
49708;PMS5003;35601;55.902;13.606;2024-02-28T05:40:42;32;28;
49708;PMS5003;35601;55.902;13.606;2024-02-28T05:43:07;40;26;
49708;PMS5003;35601;55.902;13.606;2024-02-28T05:45:32;32;26;
49708;PMS5003;35601;55.902;13.606;2024-02-28T05:47:58;27;22;
49708;PMS5003;35601;55.902;13.606;2024-02-28T05:50:23;27;24;
49708;PMS5003;35601;55.902;13.606;2024-02-28T05:52:49;27;20;
49708;PMS5003;35601;55.902;13.606;2024-02-28T05:55:15;30;25;
49708;PMS5003;35601;55.902;13.606;2024-02-28T05:57:40;30;21;
49708;PMS5003;35601;55.902;13.606;2024-02-28T06:00:06;31;26;
49708;PMS5003;35601;55.902;13.606;2024-02-28T06:02:31;31;24;
49708;PMS5003;35601;55.902;13.606;2024-02-28T06:04:56;34;29;
49708;PMS5003;35601;55.902;13.606;2024-02-28T06:07:22;32;24;
49708;PMS5003;35601;55.902;13.606;2024-02-28T06:09:47;39;29;
49708;PMS5003;35601;55.902;13.606;2024-02-28T06:12:13;34;25;
49708;PMS5003;35601;55.902;13.606;2024-02-28T06:14:38;34;30;
49708;PMS5003;35601;55.902;13.606;2024-02-28T06:17:03;38;29;
49708;PMS5003;35601;55.902;13.606;2024-02-28T06:19:29;33;28;
49708;PMS5003;35601;55.902;13.606;2024-02-28T06:21:54;29;25;
49708;PMS5003;35601;55.902;13.606;2024-02-28T06:24:20;36;27;
49708;PMS5003;35601;55.902;13.606;2024-02-28T06:26:45;28;25;
49708;PMS5003;35601;55.902;13.606;2024-02-28T06:29:10;32;23;
49708;PMS5003;35601;55.902;13.606;2024-02-28T06:31:36;38;34;
49708;PMS5003;35601;55.902;13.606;2024-02-28T06:34:02;33;29;
49708;PMS5003;35601;55.902;13.606;2024-02-28T06:36:26;33;28;
49708;PMS5003;35601;55.902;13.606;2024-02-28T06:38:51;38;29;
49708;PMS5003;35601;55.902;13.606;2024-02-28T06:41:16;30;25;
49708;PMS5003;35601;55.902;13.606;2024-02-28T06:43:42;42;31;
49708;PMS5003;35601;55.902;13.606;2024-02-28T06:46:07;34;28;
49708;PMS5003;35601;55.902;13.606;2024-02-28T06:48:32;37;29;
49708;PMS5003;35601;55.902;13.606;2024-02-28T06:50:58;31;26;
49708;PMS5003;35601;55.902;13.606;2024-02-28T06:53:23;36;31;
49708;PMS5003;35601;55.902;13.606;2024-02-28T06:55:48;31;24;
49708;PMS5003;35601;55.902;13.606;2024-02-28T06:58:14;30;26;
49708;PMS5003;35601;55.902;13.606;2024-02-28T07:00:39;30;21;
49708;PMS5003;35601;55.902;13.606;2024-02-28T07:03:05;38;28;
49708;PMS5003;35601;55.902;13.606;2024-02-28T07:05:30;31;25;
49708;PMS5003;35601;55.902;13.606;2024-02-28T07:07:55;39;29;
49708;PMS5003;35601;55.902;13.606;2024-02-28T07:10:21;26;24;
49708;PMS5003;35601;55.902;13.606;2024-02-28T07:12:46;32;24;
49708;PMS5003;35601;55.902;13.606;2024-02-28T07:15:12;36;29;
49708;PMS5003;35601;55.902;13.606;2024-02-28T07:17:37;34;29;
49708;PMS5003;35601;55.902;13.606;2024-02-28T07:20:03;29;23;
49708;PMS5003;35601;55.902;13.606;2024-02-28T07:22:28;28;23;
49708;PMS5003;35601;55.902;13.606;2024-02-28T07:24:54;34;27;
49708;PMS5003;35601;55.902;13.606;2024-02-28T07:27:19;35;29;
49708;PMS5003;35601;55.902;13.606;2024-02-28T07:29:44;40;32;
49708;PMS5003;35601;55.902;13.606;2024-02-28T07:32:09;34;32;
49708;PMS5003;35601;55.902;13.606;2024-02-28T07:34:34;30;28;
49708;PMS5003;35601;55.902;13.606;2024-02-28T07:36:59;39;33;
49708;PMS5003;35601;55.902;13.606;2024-02-28T07:39:25;25;25;
49708;PMS5003;35601;55.902;13.606;2024-02-28T07:41:50;35;29;
49708;PMS5003;35601;55.902;13.606;2024-02-28T07:44:16;35;32;
49708;PMS5003;35601;55.902;13.606;2024-02-28T07:46:41;29;25;
49708;PMS5003;35601;55.902;13.606;2024-02-28T07:49:07;33;29;
49708;PMS5003;35601;55.902;13.606;2024-02-28T07:51:32;35;30;
49708;PMS5003;35601;55.902;13.606;2024-02-28T07:53:57;26;23;
49708;PMS5003;35601;55.902;13.606;2024-02-28T07:56:22;45;37;
49708;PMS5003;35601;55.902;13.606;2024-02-28T07:58:48;27;25;
49708;PMS5003;35601;55.902;13.606;2024-02-28T08:01:14;36;29;
49708;PMS5003;35601;55.902;13.606;2024-02-28T08:03:39;30;25;
49708;PMS5003;35601;55.902;13.606;2024-02-28T08:06:05;33;30;
49708;PMS5003;35601;55.902;13.606;2024-02-28T08:08:30;28;25;
49708;PMS5003;35601;55.902;13.606;2024-02-28T08:10:56;34;26;
49708;PMS5003;35601;55.902;13.606;2024-02-28T08:13:22;26;25;
49708;PMS5003;35601;55.902;13.606;2024-02-28T08:15:46;26;26;
49708;PMS5003;35601;55.902;13.606;2024-02-28T08:18:12;29;24;
49708;PMS5003;35601;55.902;13.606;2024-02-28T08:20:37;33;28;
49708;PMS5003;35601;55.902;13.606;2024-02-28T08:23:03;26;23;
49708;PMS5003;35601;55.902;13.606;2024-02-28T08:25:28;27;27;
49708;PMS5003;35601;55.902;13.606;2024-02-28T08:27:54;29;27;
49708;PMS5003;35601;55.902;13.606;2024-02-28T08:30:19;31;26;
49708;PMS5003;35601;55.902;13.606;2024-02-28T08:32:44;31;27;
49708;PMS5003;35601;55.902;13.606;2024-02-28T08:35:10;35;29;
49708;PMS5003;35601;55.902;13.606;2024-02-28T08:37:35;32;27;
49708;PMS5003;35601;55.902;13.606;2024-02-28T08:40:01;33;26;
49708;PMS5003;35601;55.902;13.606;2024-02-28T08:42:26;29;25;
49708;PMS5003;35601;55.902;13.606;2024-02-28T08:44:52;30;27;
49708;PMS5003;35601;55.902;13.606;2024-02-28T08:47:17;27;25;
49708;PMS5003;35601;55.902;13.606;2024-02-28T08:49:43;25;23;
49708;PMS5003;35601;55.902;13.606;2024-02-28T08:52:08;28;23;
49708;PMS5003;35601;55.902;13.606;2024-02-28T08:54:34;26;23;
49708;PMS5003;35601;55.902;13.606;2024-02-28T08:56:59;40;29;
49708;PMS5003;35601;55.902;13.606;2024-02-28T08:59:25;32;26;
49708;PMS5003;35601;55.902;13.606;2024-02-28T09:01:50;26;23;
49708;PMS5003;35601;55.902;13.606;2024-02-28T09:04:16;24;21;
49708;PMS5003;35601;55.902;13.606;2024-02-28T09:06:41;28;25;
49708;PMS5003;35601;55.902;13.606;2024-02-28T09:09:06;28;24;
49708;PMS5003;35601;55.902;13.606;2024-02-28T09:11:31;31;21;
49708;PMS5003;35601;55.902;13.606;2024-02-28T09:13:56;38;29;
49708;PMS5003;35601;55.902;13.606;2024-02-28T09:16:21;28;27;
49708;PMS5003;35601;55.902;13.606;2024-02-28T09:18:46;30;24;
49708;PMS5003;35601;55.902;13.606;2024-02-28T09:21:12;26;25;
49708;PMS5003;35601;55.902;13.606;2024-02-28T09:23:37;33;25;
49708;PMS5003;35601;55.902;13.606;2024-02-28T09:26:03;27;25;
49708;PMS5003;35601;55.902;13.606;2024-02-28T09:28:28;29;24;
49708;PMS5003;35601;55.902;13.606;2024-02-28T09:30:53;30;27;
49708;PMS5003;35601;55.902;13.606;2024-02-28T09:33:19;33;25;
49708;PMS5003;35601;55.902;13.606;2024-02-28T09:35:45;33;29;
49708;PMS5003;35601;55.902;13.606;2024-02-28T09:38:10;34;31;
49708;PMS5003;35601;55.902;13.606;2024-02-28T09:40:35;32;23;
49708;PMS5003;35601;55.902;13.606;2024-02-28T09:43:01;25;24;
49708;PMS5003;35601;55.902;13.606;2024-02-28T09:45:26;30;24;
49708;PMS5003;35601;55.902;13.606;2024-02-28T09:47:51;35;25;
49708;PMS5003;35601;55.902;13.606;2024-02-28T09:50:17;28;24;
49708;PMS5003;35601;55.902;13.606;2024-02-28T09:52:42;33;24;
49708;PMS5003;35601;55.902;13.606;2024-02-28T09:55:08;33;26;
49708;PMS5003;35601;55.902;13.606;2024-02-28T09:57:33;34;30;
49708;PMS5003;35601;55.902;13.606;2024-02-28T09:59:59;32;30;
49708;PMS5003;35601;55.902;13.606;2024-02-28T10:02:24;32;29;
49708;PMS5003;35601;55.902;13.606;2024-02-28T10:04:50;32;23;
49708;PMS5003;35601;55.902;13.606;2024-02-28T10:07:15;28;25;
49708;PMS5003;35601;55.902;13.606;2024-02-28T10:09:40;31;24;
49708;PMS5003;35601;55.902;13.606;2024-02-28T10:12:06;34;31;
49708;PMS5003;35601;55.902;13.606;2024-02-28T10:14:30;33;23;
49708;PMS5003;35601;55.902;13.606;2024-02-28T10:16:56;32;30;
49708;PMS5003;35601;55.902;13.606;2024-02-28T10:19:22;34;31;
49708;PMS5003;35601;55.902;13.606;2024-02-28T10:21:47;34;28;
49708;PMS5003;35601;55.902;13.606;2024-02-28T10:24:12;32;26;
49708;PMS5003;35601;55.902;13.606;2024-02-28T10:26:41;33;30;
49708;PMS5003;35601;55.902;13.606;2024-02-28T10:29:03;24;23;
49708;PMS5003;35601;55.902;13.606;2024-02-28T10:31:29;33;24;
49708;PMS5003;35601;55.902;13.606;2024-02-28T10:33:54;36;32;
49708;PMS5003;35601;55.902;13.606;2024-02-28T10:36:19;34;28;
49708;PMS5003;35601;55.902;13.606;2024-02-28T10:38:45;39;32;
49708;PMS5003;35601;55.902;13.606;2024-02-28T10:41:10;28;26;
49708;PMS5003;35601;55.902;13.606;2024-02-28T10:43:36;31;28;
49708;PMS5003;35601;55.902;13.606;2024-02-28T10:46:02;33;29;
49708;PMS5003;35601;55.902;13.606;2024-02-28T10:48:27;34;29;
49708;PMS5003;35601;55.902;13.606;2024-02-28T10:50:52;29;26;
49708;PMS5003;35601;55.902;13.606;2024-02-28T10:53:20;31;23;
49708;PMS5003;35601;55.902;13.606;2024-02-28T10:55:43;30;27;
49708;PMS5003;35601;55.902;13.606;2024-02-28T10:58:08;36;31;
49708;PMS5003;35601;55.902;13.606;2024-02-28T11:00:34;27;27;
49708;PMS5003;35601;55.902;13.606;2024-02-28T11:02:59;33;28;
49708;PMS5003;35601;55.902;13.606;2024-02-28T11:07:50;32;31;
49708;PMS5003;35601;55.902;13.606;2024-02-28T11:10:15;32;31;
49708;PMS5003;35601;55.902;13.606;2024-02-28T11:12:40;34;28;
49708;PMS5003;35601;55.902;13.606;2024-02-28T11:15:15;35;31;
49708;PMS5003;35601;55.902;13.606;2024-02-28T11:17:32;36;32;
49708;PMS5003;35601;55.902;13.606;2024-02-28T11:19:57;30;29;
49708;PMS5003;35601;55.902;13.606;2024-02-28T11:22:23;35;29;
49708;PMS5003;35601;55.902;13.606;2024-02-28T11:24:48;36;30;
49708;PMS5003;35601;55.902;13.606;2024-02-28T11:27:13;40;34;
49708;PMS5003;35601;55.902;13.606;2024-02-28T11:29:38;31;27;
49708;PMS5003;35601;55.902;13.606;2024-02-28T11:32:05;28;26;
49708;PMS5003;35601;55.902;13.606;2024-02-28T11:34:29;29;25;
49708;PMS5003;35601;55.902;13.606;2024-02-28T11:36:55;28;22;
49708;PMS5003;35601;55.902;13.606;2024-02-28T11:39:21;29;26;
49708;PMS5003;35601;55.902;13.606;2024-02-28T11:41:46;34;29;
49708;PMS5003;35601;55.902;13.606;2024-02-28T11:44:12;26;24;
49708;PMS5003;35601;55.902;13.606;2024-02-28T11:46:37;37;28;
49708;PMS5003;35601;55.902;13.606;2024-02-28T11:49:03;30;25;
49708;PMS5003;35601;55.902;13.606;2024-02-28T11:51:28;35;27;
49708;PMS5003;35601;55.902;13.606;2024-02-28T11:53:53;30;29;
49708;PMS5003;35601;55.902;13.606;2024-02-28T11:56:18;34;29;
49708;PMS5003;35601;55.902;13.606;2024-02-28T12:01:09;33;29;
49708;PMS5003;35601;55.902;13.606;2024-02-28T12:03:34;37;27;
49708;PMS5003;35601;55.902;13.606;2024-02-28T12:05:59;37;29;
49708;PMS5003;35601;55.902;13.606;2024-02-28T12:08:24;45;33;
49708;PMS5003;35601;55.902;13.606;2024-02-28T12:10:50;33;30;
49708;PMS5003;35601;55.902;13.606;2024-02-28T12:13:16;37;27;
49708;PMS5003;35601;55.902;13.606;2024-02-28T12:15:41;33;27;
49708;PMS5003;35601;55.902;13.606;2024-02-28T12:18:07;36;25;
49708;PMS5003;35601;55.902;13.606;2024-02-28T12:20:32;27;27;
49708;PMS5003;35601;55.902;13.606;2024-02-28T12:22:58;37;28;
49708;PMS5003;35601;55.902;13.606;2024-02-28T12:25:23;31;31;
49708;PMS5003;35601;55.902;13.606;2024-02-28T12:27:49;36;30;
49708;PMS5003;35601;55.902;13.606;2024-02-28T12:30:15;36;33;
49708;PMS5003;35601;55.902;13.606;2024-02-28T12:32:40;39;33;
49708;PMS5003;35601;55.902;13.606;2024-02-28T12:35:06;38;28;
49708;PMS5003;35601;55.902;13.606;2024-02-28T12:37:30;30;29;
49708;PMS5003;35601;55.902;13.606;2024-02-28T12:39:55;32;30;
49708;PMS5003;35601;55.902;13.606;2024-02-28T12:42:21;35;32;
49708;PMS5003;35601;55.902;13.606;2024-02-28T12:44:46;46;35;
49708;PMS5003;35601;55.902;13.606;2024-02-28T12:47:11;43;34;
49708;PMS5003;35601;55.902;13.606;2024-02-28T12:49:36;38;31;
49708;PMS5003;35601;55.902;13.606;2024-02-28T12:52:02;36;28;
49708;PMS5003;35601;55.902;13.606;2024-02-28T12:54:27;40;36;
49708;PMS5003;35601;55.902;13.606;2024-02-28T12:56:53;43;32;
49708;PMS5003;35601;55.902;13.606;2024-02-28T12:59:18;49;42;
49708;PMS5003;35601;55.902;13.606;2024-02-28T13:01:44;42;33;
49708;PMS5003;35601;55.902;13.606;2024-02-28T13:04:09;47;36;
49708;PMS5003;35601;55.902;13.606;2024-02-28T13:06:35;37;28;
49708;PMS5003;35601;55.902;13.606;2024-02-28T13:09:00;40;35;
49708;PMS5003;35601;55.902;13.606;2024-02-28T13:11:25;39;30;
49708;PMS5003;35601;55.902;13.606;2024-02-28T13:13:51;48;39;
49708;PMS5003;35601;55.902;13.606;2024-02-28T13:16:16;43;32;
49708;PMS5003;35601;55.902;13.606;2024-02-28T13:18:41;42;36;
49708;PMS5003;35601;55.902;13.606;2024-02-28T13:21:06;40;33;
49708;PMS5003;35601;55.902;13.606;2024-02-28T13:23:32;42;34;
49708;PMS5003;35601;55.902;13.606;2024-02-28T13:25:57;38;36;
49708;PMS5003;35601;55.902;13.606;2024-02-28T13:28:23;37;34;
49708;PMS5003;35601;55.902;13.606;2024-02-28T13:30:48;45;36;
49708;PMS5003;35601;55.902;13.606;2024-02-28T13:33:13;42;34;
49708;PMS5003;35601;55.902;13.606;2024-02-28T13:35:38;40;34;
49708;PMS5003;35601;55.902;13.606;2024-02-28T13:38:04;39;33;
49708;PMS5003;35601;55.902;13.606;2024-02-28T13:40:29;40;35;
49708;PMS5003;35601;55.902;13.606;2024-02-28T13:42:55;42;36;
49708;PMS5003;35601;55.902;13.606;2024-02-28T13:45:20;46;36;
49708;PMS5003;35601;55.902;13.606;2024-02-28T13:47:45;48;38;
49708;PMS5003;35601;55.902;13.606;2024-02-28T13:50:11;46;34;
49708;PMS5003;35601;55.902;13.606;2024-02-28T13:52:36;41;36;
49708;PMS5003;35601;55.902;13.606;2024-02-28T13:55:02;52;37;
49708;PMS5003;35601;55.902;13.606;2024-02-28T13:57:28;41;32;
49708;PMS5003;35601;55.902;13.606;2024-02-28T13:59:53;43;37;
49708;PMS5003;35601;55.902;13.606;2024-02-28T14:02:19;50;38;
49708;PMS5003;35601;55.902;13.606;2024-02-28T14:04:44;41;35;
49708;PMS5003;35601;55.902;13.606;2024-02-28T14:07:10;54;43;
49708;PMS5003;35601;55.902;13.606;2024-02-28T14:09:35;48;40;
49708;PMS5003;35601;55.902;13.606;2024-02-28T14:12:00;48;40;
49708;PMS5003;35601;55.902;13.606;2024-02-28T14:14:26;43;37;
49708;PMS5003;35601;55.902;13.606;2024-02-28T14:16:51;45;36;
49708;PMS5003;35601;55.902;13.606;2024-02-28T14:19:17;45;37;
49708;PMS5003;35601;55.902;13.606;2024-02-28T14:21:42;47;40;
49708;PMS5003;35601;55.902;13.606;2024-02-28T14:24:07;47;36;
49708;PMS5003;35601;55.902;13.606;2024-02-28T14:26:33;54;38;
49708;PMS5003;35601;55.902;13.606;2024-02-28T14:28:59;43;35;
49708;PMS5003;35601;55.902;13.606;2024-02-28T14:31:24;50;41;
49708;PMS5003;35601;55.902;13.606;2024-02-28T14:33:50;59;45;
49708;PMS5003;35601;55.902;13.606;2024-02-28T14:36:15;47;40;
49708;PMS5003;35601;55.902;13.606;2024-02-28T14:38:40;44;37;
49708;PMS5003;35601;55.902;13.606;2024-02-28T14:41:06;48;40;
49708;PMS5003;35601;55.902;13.606;2024-02-28T14:43:31;42;37;
49708;PMS5003;35601;55.902;13.606;2024-02-28T14:45:56;41;37;
49708;PMS5003;35601;55.902;13.606;2024-02-28T14:48:21;50;46;
49708;PMS5003;35601;55.902;13.606;2024-02-28T14:50:47;46;43;
49708;PMS5003;35601;55.902;13.606;2024-02-28T14:53:12;56;42;
49708;PMS5003;35601;55.902;13.606;2024-02-28T14:55:37;53;45;
49708;PMS5003;35601;55.902;13.606;2024-02-28T14:58:03;69;49;
49708;PMS5003;35601;55.902;13.606;2024-02-28T15:00:29;48;38;
49708;PMS5003;35601;55.902;13.606;2024-02-28T15:02:54;57;40;
49708;PMS5003;35601;55.902;13.606;2024-02-28T15:05:20;53;44;
49708;PMS5003;35601;55.902;13.606;2024-02-28T15:07:45;54;45;
49708;PMS5003;35601;55.902;13.606;2024-02-28T15:10:11;57;48;
49708;PMS5003;35601;55.902;13.606;2024-02-28T15:12:36;45;41;
49708;PMS5003;35601;55.902;13.606;2024-02-28T15:15:03;48;43;
49708;PMS5003;35601;55.902;13.606;2024-02-28T15:17:27;46;40;
49708;PMS5003;35601;55.902;13.606;2024-02-28T15:19:53;46;40;
49708;PMS5003;35601;55.902;13.606;2024-02-28T15:22:18;45;39;
49708;PMS5003;35601;55.902;13.606;2024-02-28T15:24:43;49;40;
49708;PMS5003;35601;55.902;13.606;2024-02-28T15:27:08;47;37;
49708;PMS5003;35601;55.902;13.606;2024-02-28T15:29:34;52;43;
49708;PMS5003;35601;55.902;13.606;2024-02-28T15:31:59;51;38;
49708;PMS5003;35601;55.902;13.606;2024-02-28T15:34:25;45;39;
49708;PMS5003;35601;55.902;13.606;2024-02-28T15:36:50;51;42;
49708;PMS5003;35601;55.902;13.606;2024-02-28T15:39:15;52;41;
49708;PMS5003;35601;55.902;13.606;2024-02-28T15:41:41;44;40;
49708;PMS5003;35601;55.902;13.606;2024-02-28T15:44:06;53;44;
49708;PMS5003;35601;55.902;13.606;2024-02-28T15:46:32;52;46;
49708;PMS5003;35601;55.902;13.606;2024-02-28T15:48:57;49;40;
49708;PMS5003;35601;55.902;13.606;2024-02-28T15:51:23;42;40;
49708;PMS5003;35601;55.902;13.606;2024-02-28T15:53:48;55;45;